Grand Strand Airport North Myrtle Beach US
ICAO: KCRE
IATA: CRE
Category: Medium
Scheduled Services: No

Elevation: 32 ft
TransAlt. 18000 ft.

Airport Communications:
MYRTLE BEACH APP/DEP:119.2
ATIS:119.625
CTAF:124.6
STRAND GND:121.8
ANDERSON RDO:123.6
STRAND TWR:124.6
UNICOM:122.95

KCRE Zoom In..

If you have problems with the map follow the link
https://www.worldairports.se/pages/airport.php?
ICAO=KCRE

Runways:

(A) RW 05 length 5997 ft width 100 ft
---- / hdg 54

(B) RW 23 length 5997 ft width 100 ft
ILS 111.70 / hdg 234

Location; KCRE
Day. 18 / Time. 01.53 Zulu
* Altimeter: 29.98
* Temperature: 09° c. 48.2°f.
* Wind from: 350° Speed 03 kn.
Dewpoint: 07° c.
Visibility: 10 Statute Miles.
Clouds: Overcast 800 ft.

KCRE 180153Z AUTO 35003KT 10SM OVC008 09/07 A2998 RMK AO1 SLP154 T00940072 $


Wind From 350°
Speed 03 kn.

 
 
jpsmedia.com for Web Design worldairports.se 2019   terms of use